• Join FlightAware (Why Join?)
  • Login
  • US Flag 
10:23AM EDT


 

Airport Tracker/Info


-or-


 

Live Flight TrackerFlight Track Log ✈ SWA1008 ✈ 07-Sep-2013 ✈ KDAL - KMCI

Flight Track Log - Related Links

Times and Time Zones

All times are in EDT time to prevent confusion due to time zone crossing. See the SWA1008 flight status page for this flight to view local times or setup timezone preferences in your user account.

Time Position Orientation Groundspeed Altitude Reporting Facility
EDT Latitude Longitude Course Direction KTS MPH feet Rate Location/Type
08:11AM 32.8333 -96.8333 121° Southeast 152 175 1,300  Level Dallas / Fort Worth TRACON
08:12AM 32.8167 -96.8000 121° Southeast 187 215 2,800 2,100 Climbing Dallas / Fort Worth TRACON
08:13AM 32.7833 -96.7333 121° Southeast 222 255 5,100 2,580 Climbing Dallas / Fort Worth TRACON
08:14AM 32.8500 -96.7333 360° North 251 289 8,000 2,460 Climbing Dallas / Fort Worth TRACON
08:16AM 33.0075 -96.8264 334° Northwest 307 353 12,800 2,400 Climbing Fort Worth Center
08:17AM 33.0953 -96.8803 333° Northwest 336 387 15,600 2,760 Climbing Fort Worth Center
08:18AM 33.1769 -96.9369 330° Northwest 369 425 18,400 2,940 Climbing Fort Worth Center
08:19AM 33.2878 -96.9811 342° North 374 430 21,500 2,760 Climbing Fort Worth Center
08:20AM 33.3983 -97.0103 348° North 390 449 24,000 2,400 Climbing Fort Worth Center
08:21AM 33.5111 -96.9925 North 395 455 26,300 2,160 Climbing Fort Worth Center
08:22AM 33.6217 -96.9544 16° North 400 460 28,400 1,920 Climbing Fort Worth Center
08:23AM 33.7383 -96.9164 15° North 412 474 30,200 1,860 Climbing Fort Worth Center
08:25AM 33.9642 -96.8392 16° North 427 491 34,400 1,800 Climbing Kansas City Center
08:26AM 34.0822 -96.8017 15° North 417 480 35,600 1,500 Climbing Fort Worth Center
08:27AM 34.1906 -96.7708 13° North 410 472 37,200 1,500 Climbing Fort Worth Center
08:28AM 34.3072 -96.7297 16° North 416 479 38,600 1,320 Climbing Fort Worth Center
08:29AM 34.4197 -96.6936 15° North 416 479 39,900 1,200 Climbing Fort Worth Center
08:30AM 34.5319 -96.6572 15° North 411 473 41,000 540 Climbing Fort Worth Center
08:31AM 34.6425 -96.6183 16° North 411 473 41,000  Level Fort Worth Center
08:32AM 34.7547 -96.5819 15° North 411 473 41,000  Level Fort Worth Center
08:33AM 34.8672 -96.5431 16° North 411 473 41,000  Level Fort Worth Center
08:34AM 34.9794 -96.5064 15° North 411 473 41,000  Level Fort Worth Center
08:35AM 35.0919 -96.4697 15° North 411 473 41,000  Level Fort Worth Center
08:38AM 35.3317 -96.3875 16° North 412 474 41,000  Level Kansas City Center
08:39AM 35.4622 -96.3425 16° North 409 471 41,000  Level Kansas City Center
08:40AM 35.5711 -96.3058 15° North 408 470 41,000  Level Kansas City Center
08:41AM 35.6803 -96.2697 15° North 408 470 41,000  Level Kansas City Center
08:42AM 35.7897 -96.2322 16° North 409 471 41,000  Level Kansas City Center
08:43AM 35.8947 -96.1975 15° North 406 467 41,000  Level Kansas City Center
08:44AM 36.0061 -96.1594 15° North 409 471 41,000  Level Kansas City Center
08:45AM 36.1172 -96.1219 15° North 411 473 41,000  Level Kansas City Center
08:46AM 36.2286 -96.0850 15° North 411 473 41,000  Level Kansas City Center
08:47AM 36.3406 -96.0458 16° North 412 474 41,000  Level Kansas City Center
08:48AM 36.4550 -96.0069 15° North 419 482 41,000  Level Kansas City Center
08:49AM 36.5686 -95.9672 16° North 420 483 41,000  Level Kansas City Center
08:50AM 36.6825 -95.9269 16° North 420 483 41,000  Level Kansas City Center
08:51AM 36.7947 -95.8883 15° North 417 480 41,000  Level Kansas City Center
08:52AM 36.9081 -95.8483 16° North 419 482 41,000  Level Kansas City Center
08:53AM 37.0408 -95.8011 16° North 415 478 41,000  Level Kansas City Center
08:54AM 37.1531 -95.7625 15° North 415 478 41,000  Level Kansas City Center
08:56AM 37.3756 -95.6828 16° North 414 476 41,000 -60 Level Kansas City Center
08:58AM 37.6006 -95.6017 16° North 419 482 40,900 -60 Descending Kansas City Center
08:59AM 37.7169 -95.5797 North 421 484 40,900 -420 Level Kansas City Center
09:00AM 37.8317 -95.5631 North 416 479 40,100 -960 Descending Kansas City Center
09:01AM 37.9514 -95.5478 North 414 476 39,000 -600 Descending Kansas City Center
09:02AM 38.0603 -95.5322 North 411 473 39,000 -120 Level Kansas City Center
09:03AM 38.1844 -95.5136 North 404 465 38,800 -1,800 Descending Kansas City Center
09:04AM 38.2914 -95.4978 North 403 464 35,400 -3,360 Descending Kansas City Center
09:05AM 38.4078 -95.4811 North 436 502 32,000 -3,960 Descending Kansas City Center
09:06AM 38.5461 -95.4594 North 446 513 27,400 -4,020 Descending Kansas City Center
09:07AM 38.6667 -95.4406 North 454 522 23,900 -3,660 Descending Kansas City Center
09:08AM 38.8039 -95.4181 North 445 512 20,000 -3,240 Descending Kansas City Center
09:09AM 38.8819 -95.3142 46° Northeast 420 483 17,300 -2,760 Descending Kansas City Center
09:10AM 38.9525 -95.2128 48° Northeast 402 463 14,400 -3,180 Descending Kansas City Center
09:11AM 39.0497 -95.1244 35° Northeast 390 449 10,900 -2,100 Descending Kansas City Center
09:12AM 39.1281 -95.0572 34° Northeast 352 405 10,100 -1,200 Descending Kansas City Center
09:13AM 39.2050 -94.9925 33° Northeast 299 344 8,500 -1,740 Descending Kansas City Center
09:14AM 39.2672 -94.9386 34° Northeast 285 328 6,600 -1,920 Descending Kansas City Center
09:15AM 39.3386 -94.8736 35° Northeast 283 326 4,600 -1,560 Descending Kansas City Center
09:16AM 39.3994 -94.8169 36° Northeast 283 326 3,500 -600 Descending Kansas City Center
09:17AM 39.4211 -94.7511 67° East 227 261 3,500 -600 Level Kansas City Center
09:18AM 39.3900 -94.7008 129° Southeast 162 186 2,300 -900 Descending Kansas City Center
09:19AM 39.3581 -94.7103 193° South 121 139 1,700 -660 Descending Kansas City Center
09:20AM 39.3211 -94.7211 193° South 121 139 1,000 -720 Descending Kansas City Center
09:22AM 39.2976 -94.7139 180° South  Level Estimated